Time;durP1;ratioP1;P1;durP2;ratioP2;P2;SDS_P1;SDS_P2;PMS_P1;PMS_P2;Temp;Humidity;BMP_temperature;BMP_pressure;BME280_temperature;BME280_humidity;BME280_pressure;Samples;Min_cycle;Max_cycle;Signal;HPM_P1;HPM_P2
2023/08/30 00:02:02;;;;;;;15.52;13.85;;;;;;;;;;5113998;28;20478;-76
2023/08/30 00:04:28;;;;;;;15.65;14.05;;;;;;;;;;5095015;28;20043;-76
2023/08/30 00:06:54;;;;;;;16.60;14.85;;;;;;;;;;5113303;28;20089;-76
2023/08/30 00:09:20;;;;;;;16.60;14.90;;;;;;;;;;5091844;28;20379;-76
2023/08/30 00:11:46;;;;;;;16.85;15.15;;;;;;;;;;5098926;28;20089;-76
2023/08/30 00:14:13;;;;;;;17.15;15.02;;;;;;;;;;5108742;28;20048;-76
2023/08/30 00:16:39;;;;;;;18.02;16.20;;;;;;;;;;5101770;28;20035;-76
2023/08/30 00:19:05;;;;;;;16.90;15.30;;;;;;;;;;5108248;28;20093;-76
2023/08/30 00:21:31;;;;;;;18.30;16.38;;;;;;;;;;5108111;28;20766;-76
2023/08/30 00:23:57;;;;;;;17.40;15.80;;;;;;;;;;5090920;28;20478;-76
2023/08/30 00:26:24;;;;;;;18.35;16.55;;;;;;;;;;5082623;28;20512;-76
2023/08/30 00:28:50;;;;;;;15.93;14.43;;;;;;;;;;5108970;28;20082;-76
2023/08/30 00:31:16;;;;;;;17.85;15.70;;;;;;;;;;5100242;28;20039;-76
2023/08/30 00:33:42;;;;;;;19.42;17.42;;;;;;;;;;5101870;28;20066;-76
2023/08/30 00:36:08;;;;;;;17.98;16.17;;;;;;;;;;5109238;28;20047;-76
2023/08/30 00:38:34;;;;;;;17.67;15.63;;;;;;;;;;5105068;28;20043;-76
2023/08/30 00:41:00;;;;;;;19.42;17.45;;;;;;;;;;5111514;28;20040;-77
2023/08/30 00:43:26;;;;;;;15.77;14.18;;;;;;;;;;5091506;28;20047;-77
2023/08/30 00:45:52;;;;;;;19.73;17.75;;;;;;;;;;5104817;28;20052;-77
2023/08/30 00:48:19;;;;;;;17.55;15.27;;;;;;;;;;5108720;28;20040;-76
2023/08/30 00:50:46;;;;;;;18.60;16.65;;;;;;;;;;5109883;28;20122;-77
2023/08/30 00:53:13;;;;;;;17.80;16.00;;;;;;;;;;5110528;28;20035;-77
2023/08/30 00:55:39;;;;;;;17.38;15.68;;;;;;;;;;5110167;28;20410;-77
2023/08/30 00:58:06;;;;;;;16.25;14.65;;;;;;;;;;5111986;28;20035;-76
2023/08/30 01:00:33;;;;;;;17.83;16.02;;;;;;;;;;5112245;28;20039;-76
2023/08/30 01:02:59;;;;;;;17.92;16.17;;;;;;;;;;5094258;28;20447;-77
2023/08/30 01:05:25;;;;;;;18.10;16.50;;;;;;;;;;5075152;28;20093;-76
2023/08/30 01:07:52;;;;;;;20.50;18.60;;;;;;;;;;5111352;28;20059;-76
2023/08/30 01:10:22;;;;;;;19.13;17.33;;;;;;;;;;5113874;28;20071;-76
2023/08/30 01:12:50;;;;;;;18.17;16.55;;;;;;;;;;5109703;28;20516;-77
2023/08/30 01:15:19;;;;;;;18.40;16.55;;;;;;;;;;5113278;28;20040;-77
2023/08/30 01:17:45;;;;;;;18.30;16.25;;;;;;;;;;5109386;28;20496;-77
2023/08/30 01:20:20;;;;;;;18.35;16.55;;;;;;;;;;5112256;28;20050;-76
2023/08/30 01:23:01;;;;;;;18.95;16.95;;;;;;;;;;5112722;28;20085;-77
2023/08/30 01:25:27;;;;;;;18.67;16.42;;;;;;;;;;5112846;28;20047;-77
2023/08/30 01:27:54;;;;;;;16.65;15.02;;;;;;;;;;5094564;28;20186;-78
2023/08/30 01:30:21;;;;;;;18.42;15.52;;;;;;;;;;5112824;28;20375;-76
2023/08/30 01:32:47;;;;;;;17.35;15.70;;;;;;;;;;5108937;28;20058;-76
2023/08/30 01:35:19;;;;;;;15.63;14.07;;;;;;;;;;5102704;28;20040;-76
2023/08/30 01:37:48;;;;;;;14.27;12.88;;;;;;;;;;5110879;28;20050;-77
2023/08/30 01:40:16;;;;;;;15.15;13.25;;;;;;;;;;5112767;28;20044;-76
2023/08/30 01:42:44;;;;;;;16.77;15.10;;;;;;;;;;5104998;28;20123;-77
2023/08/30 01:45:13;;;;;;;16.65;14.98;;;;;;;;;;5087324;28;20047;-77
2023/08/30 01:47:40;;;;;;;17.50;15.80;;;;;;;;;;5106702;28;20040;-77
2023/08/30 01:50:07;;;;;;;16.48;14.77;;;;;;;;;;5098207;28;20036;-76
2023/08/30 01:52:33;;;;;;;16.20;14.68;;;;;;;;;;5099355;28;20138;-77
2023/08/30 01:55:03;;;;;;;15.00;13.50;;;;;;;;;;5100725;28;20036;-76
2023/08/30 01:57:29;;;;;;;16.10;13.55;;;;;;;;;;5092480;28;20500;-77
2023/08/30 01:59:55;;;;;;;13.63;12.07;;;;;;;;;;5111648;28;20043;-76
2023/08/30 02:02:21;;;;;;;14.30;12.90;;;;;;;;;;5112099;28;20481;-76
2023/08/30 02:04:47;;;;;;;15.25;13.68;;;;;;;;;;5110082;28;20100;-77
2023/08/30 02:07:23;;;;;;;15.85;13.02;;;;;;;;;;5111112;28;20390;-76
2023/08/30 02:09:58;;;;;;;16.17;13.68;;;;;;;;;;5098654;28;20119;-76
2023/08/30 02:12:28;;;;;;;14.52;12.75;;;;;;;;;;5097807;28;20044;-76
2023/08/30 02:14:55;;;;;;;13.77;12.35;;;;;;;;;;5101742;28;20117;-76
2023/08/30 02:17:22;;;;;;;15.93;14.32;;;;;;;;;;5113092;28;20043;-76
2023/08/30 02:19:52;;;;;;;14.30;12.93;;;;;;;;;;5104522;28;20044;-76
2023/08/30 02:22:19;;;;;;;15.23;13.10;;;;;;;;;;5082316;28;20036;-76
2023/08/30 02:24:45;;;;;;;15.13;12.95;;;;;;;;;;5099417;28;20146;-76
2023/08/30 02:27:11;;;;;;;15.18;12.68;;;;;;;;;;5105920;28;20484;-76
2023/08/30 02:29:37;;;;;;;14.68;12.95;;;;;;;;;;5114425;28;20101;-76
2023/08/30 02:32:03;;;;;;;14.95;13.35;;;;;;;;;;5112095;28;20054;-75
2023/08/30 02:34:29;;;;;;;16.00;13.85;;;;;;;;;;5114152;28;20039;-77
2023/08/30 02:36:55;;;;;;;15.48;13.88;;;;;;;;;;5113801;28;20039;-76
2023/08/30 02:39:22;;;;;;;14.90;12.73;;;;;;;;;;5110252;28;20039;-77
2023/08/30 02:41:48;;;;;;;17.67;13.20;;;;;;;;;;5110947;28;20059;-76
2023/08/30 02:44:14;;;;;;;15.77;13.30;;;;;;;;;;5102439;28;20414;-76
2023/08/30 02:46:41;;;;;;;14.82;13.30;;;;;;;;;;5111995;28;20036;-76
2023/08/30 02:49:09;;;;;;;15.52;12.85;;;;;;;;;;5102091;28;20109;-76
2023/08/30 02:51:35;;;;;;;14.63;13.00;;;;;;;;;;5103309;28;20065;-76
2023/08/30 02:54:01;;;;;;;13.60;12.20;;;;;;;;;;5114867;28;20055;-76
2023/08/30 02:56:27;;;;;;;14.82;13.07;;;;;;;;;;5098522;28;20452;-76
2023/08/30 02:58:53;;;;;;;13.35;11.95;;;;;;;;;;5115236;28;20054;-77
2023/08/30 03:01:19;;;;;;;13.85;12.18;;;;;;;;;;5114008;28;20370;-76
2023/08/30 03:03:48;;;;;;;13.18;11.77;;;;;;;;;;5114524;28;20036;-76
2023/08/30 03:06:14;;;;;;;12.68;11.38;;;;;;;;;;5114286;28;20048;-76
2023/08/30 03:08:41;;;;;;;13.60;11.85;;;;;;;;;;5114369;28;20048;-76
2023/08/30 03:11:11;;;;;;;12.77;11.43;;;;;;;;;;5114876;28;20064;-76
2023/08/30 03:13:40;;;;;;;13.07;11.48;;;;;;;;;;5096038;28;20394;-76
2023/08/30 03:16:16;;;;;;;15.45;13.15;;;;;;;;;;5114104;28;20413;-77
2023/08/30 03:18:42;;;;;;;15.02;13.35;;;;;;;;;;5114608;28;20043;-76
2023/08/30 03:21:09;;;;;;;14.88;12.93;;;;;;;;;;5114851;28;20271;-76
2023/08/30 03:23:38;;;;;;;15.63;12.60;;;;;;;;;;5114770;28;20418;-76
2023/08/30 03:26:13;;;;;;;16.83;13.82;;;;;;;;;;5106791;28;20124;-76
2023/08/30 03:28:40;;;;;;;13.40;12.02;;;;;;;;;;5110888;28;20036;-76
2023/08/30 03:31:13;;;;;;;14.73;13.23;;;;;;;;;;5101468;28;20154;-76
2023/08/30 03:33:41;;;;;;;14.30;12.68;;;;;;;;;;5107396;28;20563;-76
2023/08/30 03:36:08;;;;;;;13.23;11.75;;;;;;;;;;5108922;28;20504;-76
2023/08/30 03:38:34;;;;;;;16.17;13.38;;;;;;;;;;5113247;28;20494;-76
2023/08/30 03:41:00;;;;;;;15.18;13.48;;;;;;;;;;5115338;28;20049;-76
2023/08/30 03:43:26;;;;;;;14.13;11.95;;;;;;;;;;5107519;28;20047;-76
2023/08/30 03:45:52;;;;;;;15.20;12.93;;;;;;;;;;5096121;28;20044;-76
2023/08/30 03:48:18;;;;;;;14.95;13.40;;;;;;;;;;5100851;28;20040;-76
2023/08/30 03:50:44;;;;;;;15.93;12.75;;;;;;;;;;5108328;28;20088;-76
2023/08/30 03:53:10;;;;;;;15.73;14.02;;;;;;;;;;5110216;28;20040;-76
2023/08/30 03:55:36;;;;;;;15.43;13.80;;;;;;;;;;5107832;28;20042;-76
2023/08/30 03:58:03;;;;;;;15.40;13.57;;;;;;;;;;5112342;28;20047;-76
2023/08/30 04:00:29;;;;;;;15.25;13.65;;;;;;;;;;5106713;28;20043;-76
2023/08/30 04:02:55;;;;;;;15.32;13.73;;;;;;;;;;5099518;28;20050;-76
2023/08/30 04:05:21;;;;;;;14.98;13.40;;;;;;;;;;5110286;28;20051;-76
2023/08/30 04:07:47;;;;;;;18.10;14.77;;;;;;;;;;5098408;28;20052;-76
2023/08/30 04:10:13;;;;;;;16.13;14.38;;;;;;;;;;5093865;28;20052;-77
2023/08/30 04:12:39;;;;;;;15.75;14.05;;;;;;;;;;5114668;28;20043;-76
2023/08/30 04:15:06;;;;;;;17.40;14.65;;;;;;;;;;5114080;28;20054;-76
2023/08/30 04:17:32;;;;;;;16.80;14.93;;;;;;;;;;5106877;28;20043;-76
2023/08/30 04:19:58;;;;;;;18.00;15.18;;;;;;;;;;5103759;28;20036;-76
2023/08/30 04:22:24;;;;;;;16.92;15.15;;;;;;;;;;5066417;28;20474;-76
2023/08/30 04:24:50;;;;;;;16.23;14.50;;;;;;;;;;5096397;28;20374;-76
2023/08/30 04:27:16;;;;;;;16.85;14.95;;;;;;;;;;5114250;28;20482;-76
2023/08/30 04:29:44;;;;;;;17.67;15.85;;;;;;;;;;5113233;28;20043;-76
2023/08/30 04:32:11;;;;;;;17.50;15.70;;;;;;;;;;5111826;28;20096;-76
2023/08/30 04:34:37;;;;;;;17.13;14.25;;;;;;;;;;5110958;28;20481;-76
2023/08/30 04:37:03;;;;;;;17.83;15.73;;;;;;;;;;5100447;28;20044;-76
2023/08/30 04:39:29;;;;;;;17.58;15.13;;;;;;;;;;5099588;28;20040;-76
2023/08/30 04:41:56;;;;;;;18.85;16.23;;;;;;;;;;5103635;28;20490;-76
2023/08/30 04:44:24;;;;;;;19.00;15.35;;;;;;;;;;5111902;28;20421;-76
2023/08/30 04:46:52;;;;;;;18.80;15.75;;;;;;;;;;5095627;28;20488;-76
2023/08/30 04:49:18;;;;;;;18.50;15.70;;;;;;;;;;5101703;28;20051;-77
2023/08/30 04:51:44;;;;;;;17.60;15.65;;;;;;;;;;5111523;28;20055;-76
2023/08/30 04:54:10;;;;;;;17.73;15.60;;;;;;;;;;5108174;28;20047;-76
2023/08/30 04:56:36;;;;;;;18.85;16.73;;;;;;;;;;5089787;28;20342;-76
2023/08/30 04:59:03;;;;;;;19.23;16.40;;;;;;;;;;5091111;28;20039;-76
2023/08/30 05:01:30;;;;;;;19.75;17.73;;;;;;;;;;5111831;28;20136;-76
2023/08/30 05:03:56;;;;;;;20.00;17.23;;;;;;;;;;5106729;28;20036;-76
2023/08/30 05:06:22;;;;;;;18.40;16.42;;;;;;;;;;5108954;28;20036;-76
2023/08/30 05:08:48;;;;;;;20.90;16.80;;;;;;;;;;5101925;28;20565;-77
2023/08/30 05:11:15;;;;;;;17.45;15.52;;;;;;;;;;5103534;28;20051;-77
2023/08/30 05:13:41;;;;;;;18.25;16.25;;;;;;;;;;5113034;28;20076;-77
2023/08/30 05:16:08;;;;;;;19.83;17.17;;;;;;;;;;5110579;28;20127;-77
2023/08/30 05:18:34;;;;;;;18.60;16.60;;;;;;;;;;5111915;28;20054;-77
2023/08/30 05:21:03;;;;;;;19.77;16.02;;;;;;;;;;5106222;28;20062;-77
2023/08/30 05:23:29;;;;;;;18.52;16.40;;;;;;;;;;5107092;28;20043;-77
2023/08/30 05:25:55;;;;;;;17.75;15.75;;;;;;;;;;5106289;28;20073;-77
2023/08/30 05:28:21;;;;;;;19.88;16.33;;;;;;;;;;5111414;28;20043;-77
2023/08/30 05:30:47;;;;;;;17.55;15.60;;;;;;;;;;5111738;28;20051;-77
2023/08/30 05:33:13;;;;;;;18.55;16.58;;;;;;;;;;5111300;28;20074;-77
2023/08/30 05:35:40;;;;;;;17.38;14.82;;;;;;;;;;5107385;28;20044;-77
2023/08/30 05:38:06;;;;;;;17.42;15.45;;;;;;;;;;5105674;28;20071;-77
2023/08/30 05:40:32;;;;;;;17.88;15.65;;;;;;;;;;5112385;28;20075;-77
2023/08/30 05:42:58;;;;;;;17.30;15.50;;;;;;;;;;5097569;28;20519;-77
2023/08/30 05:45:24;;;;;;;19.40;14.38;;;;;;;;;;5112530;28;20123;-77
2023/08/30 05:47:50;;;;;;;17.90;15.48;;;;;;;;;;5108882;28;20044;-77
2023/08/30 05:50:16;;;;;;;17.60;14.95;;;;;;;;;;5107787;28;20067;-77
2023/08/30 05:52:44;;;;;;;17.75;15.70;;;;;;;;;;5098386;28;20082;-77
2023/08/30 05:55:10;;;;;;;16.77;14.00;;;;;;;;;;5104597;28;20048;-77
2023/08/30 05:57:36;;;;;;;16.52;14.13;;;;;;;;;;5110813;28;20050;-75
2023/08/30 06:00:04;;;;;;;17.25;14.27;;;;;;;;;;5112884;28;20455;-76
2023/08/30 06:02:30;;;;;;;16.17;12.65;;;;;;;;;;5096131;28;20086;-75
2023/08/30 06:04:56;;;;;;;17.23;12.68;;;;;;;;;;5104794;28;20498;-75
2023/08/30 06:07:23;;;;;;;13.52;11.82;;;;;;;;;;5102541;28;20044;-76
2023/08/30 06:09:49;;;;;;;13.00;11.25;;;;;;;;;;5104754;28;20046;-75
2023/08/30 06:12:15;;;;;;;16.05;13.10;;;;;;;;;;5099143;28;20040;-75
2023/08/30 06:14:41;;;;;;;18.92;11.57;;;;;;;;;;5096592;28;20047;-76
2023/08/30 06:17:07;;;;;;;17.00;13.02;;;;;;;;;;5114215;28;20048;-75
2023/08/30 06:19:33;;;;;;;16.33;14.57;;;;;;;;;;5114928;28;20083;-75
2023/08/30 06:21:59;;;;;;;13.75;11.25;;;;;;;;;;5115051;28;20486;-75
2023/08/30 06:24:25;;;;;;;15.80;13.38;;;;;;;;;;5113742;28;20044;-75
2023/08/30 06:26:53;;;;;;;17.58;13.82;;;;;;;;;;5086545;28;20040;-75
2023/08/30 06:29:19;;;;;;;15.52;13.18;;;;;;;;;;5112886;28;20470;-75
2023/08/30 06:31:45;;;;;;;15.07;13.48;;;;;;;;;;5113510;28;20043;-75
2023/08/30 06:34:12;;;;;;;15.43;12.63;;;;;;;;;;5078779;28;20074;-75
2023/08/30 06:36:38;;;;;;;14.52;11.00;;;;;;;;;;5107495;28;20056;-70
2023/08/30 06:39:04;;;;;;;14.30;12.57;;;;;;;;;;5100711;28;20117;-70
2023/08/30 06:41:30;;;;;;;14.38;12.63;;;;;;;;;;5094951;28;20040;-70
2023/08/30 06:43:57;;;;;;;14.45;11.70;;;;;;;;;;5114882;28;20074;-70
2023/08/30 06:46:23;;;;;;;13.40;11.13;;;;;;;;;;5096279;28;20131;-70
2023/08/30 06:48:49;;;;;;;15.02;12.55;;;;;;;;;;5113136;27;20043;-70
2023/08/30 06:51:15;;;;;;;15.43;12.65;;;;;;;;;;5113824;28;20096;-70
2023/08/30 06:53:41;;;;;;;14.43;11.35;;;;;;;;;;5111246;27;20505;-70
2023/08/30 06:56:07;;;;;;;16.85;13.13;;;;;;;;;;5114617;28;20461;-70
2023/08/30 06:58:33;;;;;;;15.63;12.70;;;;;;;;;;5114536;28;20081;-70
2023/08/30 07:00:59;;;;;;;14.45;12.82;;;;;;;;;;5118978;27;20043;-70
2023/08/30 07:03:25;;;;;;;17.40;12.07;;;;;;;;;;5114684;28;20052;-70
2023/08/30 07:05:52;;;;;;;15.13;12.93;;;;;;;;;;5101167;28;20047;-71
2023/08/30 07:08:18;;;;;;;17.05;13.27;;;;;;;;;;5117149;27;20063;-70
2023/08/30 07:10:44;;;;;;;15.73;13.82;;;;;;;;;;5115056;28;20145;-70
2023/08/30 07:13:11;;;;;;;16.77;13.07;;;;;;;;;;5114821;27;20472;-70
2023/08/30 07:15:39;;;;;;;17.70;13.40;;;;;;;;;;5115345;28;20122;-70
2023/08/30 07:18:05;;;;;;;18.27;13.13;;;;;;;;;;5117503;27;20044;-70
2023/08/30 07:20:32;;;;;;;16.10;13.15;;;;;;;;;;5102088;28;20043;-70
2023/08/30 07:22:58;;;;;;;16.27;13.15;;;;;;;;;;5113340;28;20123;-70
2023/08/30 07:25:24;;;;;;;16.45;13.15;;;;;;;;;;5114413;28;20043;-70
2023/08/30 07:27:50;;;;;;;15.85;14.02;;;;;;;;;;5108501;28;20044;-70
2023/08/30 07:30:17;;;;;;;16.27;13.13;;;;;;;;;;5113015;28;20048;-70
2023/08/30 07:32:43;;;;;;;17.65;13.20;;;;;;;;;;5103387;28;20145;-71
2023/08/30 07:35:09;;;;;;;16.65;13.68;;;;;;;;;;5096905;28;20047;-71
2023/08/30 07:37:35;;;;;;;17.60;13.57;;;;;;;;;;5113156;28;20096;-70
2023/08/30 07:40:04;;;;;;;15.57;12.57;;;;;;;;;;5111397;28;20056;-70
2023/08/30 07:42:30;;;;;;;15.07;11.98;;;;;;;;;;5111058;28;20412;-70
2023/08/30 07:44:56;;;;;;;15.65;12.77;;;;;;;;;;5097283;28;20485;-70
2023/08/30 07:47:22;;;;;;;15.43;12.27;;;;;;;;;;5103359;28;20700;-72
2023/08/30 07:49:48;;;;;;;16.92;12.30;;;;;;;;;;5111267;28;20538;-70
2023/08/30 07:52:15;;;;;;;16.65;13.52;;;;;;;;;;5114157;28;20048;-70
2023/08/30 07:54:41;;;;;;;15.25;12.00;;;;;;;;;;5114738;28;20100;-70
2023/08/30 07:57:07;;;;;;;15.98;12.52;;;;;;;;;;5114205;28;20035;-70
2023/08/30 07:59:36;;;;;;;15.73;12.43;;;;;;;;;;5111578;28;20074;-70
2023/08/30 08:02:02;;;;;;;13.85;11.32;;;;;;;;;;5112945;28;20451;-70
2023/08/30 08:04:29;;;;;;;14.23;11.70;;;;;;;;;;5095551;28;20123;-69
2023/08/30 08:06:55;;;;;;;15.82;11.95;;;;;;;;;;5115270;27;20405;-70
2023/08/30 08:09:21;;;;;;;15.52;10.88;;;;;;;;;;5095699;28;20036;-70
2023/08/30 08:11:49;;;;;;;15.80;12.32;;;;;;;;;;5112955;27;20047;-70
2023/08/30 08:14:15;;;;;;;15.88;11.50;;;;;;;;;;5131811;27;20176;-70
2023/08/30 08:16:41;;;;;;;13.65;11.70;;;;;;;;;;5111481;27;20051;-70
2023/08/30 08:19:07;;;;;;;17.05;12.07;;;;;;;;;;5129444;27;20043;-69
2023/08/30 08:21:36;;;;;;;13.93;10.90;;;;;;;;;;5126613;27;20088;-69
2023/08/30 08:24:02;;;;;;;13.65;11.45;;;;;;;;;;5102660;27;20051;-70
2023/08/30 08:26:28;;;;;;;15.60;11.93;;;;;;;;;;5109961;27;20040;-74
2023/08/30 08:28:55;;;;;;;16.50;12.85;;;;;;;;;;5113565;28;20043;-78
2023/08/30 08:31:22;;;;;;;14.82;12.68;;;;;;;;;;5114512;28;20044;-78
2023/08/30 08:33:50;;;;;;;15.68;12.30;;;;;;;;;;5114368;28;20500;-77
2023/08/30 08:36:17;;;;;;;15.77;12.52;;;;;;;;;;5102988;28;20055;-78
2023/08/30 08:38:43;;;;;;;13.60;11.63;;;;;;;;;;5093900;28;20371;-78
2023/08/30 08:41:11;;;;;;;15.00;12.50;;;;;;;;;;5094348;28;20060;-78
2023/08/30 08:43:42;;;;;;;16.27;12.00;;;;;;;;;;5094201;28;20115;-78
2023/08/30 08:46:10;;;;;;;14.60;11.80;;;;;;;;;;5108884;28;20044;-78
2023/08/30 08:48:40;;;;;;;16.35;12.38;;;;;;;;;;5093643;28;20516;-78
2023/08/30 08:51:06;;;;;;;16.75;12.10;;;;;;;;;;5094141;28;20083;-78
2023/08/30 08:53:33;;;;;;;14.85;11.70;;;;;;;;;;5094403;28;20044;-78
2023/08/30 08:56:00;;;;;;;16.15;10.95;;;;;;;;;;5093900;28;20048;-79
2023/08/30 08:58:26;;;;;;;14.00;10.77;;;;;;;;;;5093794;28;20406;-78
2023/08/30 09:00:52;;;;;;;15.55;11.45;;;;;;;;;;5094062;28;20044;-78
2023/08/30 09:03:19;;;;;;;14.50;11.05;;;;;;;;;;5095218;28;20101;-78
2023/08/30 09:05:46;;;;;;;15.35;11.18;;;;;;;;;;5093945;28;20486;-78
2023/08/30 09:08:15;;;;;;;15.02;11.10;;;;;;;;;;5093602;28;20056;-78
2023/08/30 09:10:41;;;;;;;13.98;9.60;;;;;;;;;;5094287;28;20494;-79
2023/08/30 09:13:07;;;;;;;14.43;10.82;;;;;;;;;;5103478;28;20075;-78
2023/08/30 09:15:34;;;;;;;13.38;10.77;;;;;;;;;;5113931;28;20047;-78
2023/08/30 09:18:00;;;;;;;14.15;9.65;;;;;;;;;;5114118;28;20157;-78
2023/08/30 09:20:26;;;;;;;12.98;9.68;;;;;;;;;;5110754;28;20119;-76
2023/08/30 09:22:53;;;;;;;13.13;9.80;;;;;;;;;;5107417;28;20047;-75
2023/08/30 09:25:25;;;;;;;15.68;10.85;;;;;;;;;;5111540;28;20066;-76
2023/08/30 09:27:52;;;;;;;15.10;10.65;;;;;;;;;;5109415;28;20040;-76
2023/08/30 09:30:24;;;;;;;14.38;10.38;;;;;;;;;;5108448;28;20040;-76
2023/08/30 09:32:50;;;;;;;13.35;10.13;;;;;;;;;;5107343;28;20092;-76
2023/08/30 09:35:16;;;;;;;12.75;9.73;;;;;;;;;;5111977;28;20382;-76
2023/08/30 09:37:44;;;;;;;12.95;10.55;;;;;;;;;;5107203;28;20040;-76
2023/08/30 09:40:11;;;;;;;15.20;10.18;;;;;;;;;;5111664;28;20031;-76
2023/08/30 09:42:42;;;;;;;15.40;11.93;;;;;;;;;;5110675;28;20043;-76
2023/08/30 09:45:18;;;;;;;15.00;10.90;;;;;;;;;;5112548;28;20040;-77
2023/08/30 09:47:47;;;;;;;15.55;10.65;;;;;;;;;;5082809;28;20131;-77
2023/08/30 09:50:14;;;;;;;15.57;11.55;;;;;;;;;;5111946;28;20044;-76
2023/08/30 09:52:40;;;;;;;14.23;11.35;;;;;;;;;;5092852;28;20047;-75
2023/08/30 09:55:07;;;;;;;13.32;11.50;;;;;;;;;;5097814;28;20052;-76
2023/08/30 09:57:33;;;;;;;17.23;11.52;;;;;;;;;;5088702;28;20055;-76
2023/08/30 10:00:00;;;;;;;17.85;11.43;;;;;;;;;;5101186;28;20482;-76
2023/08/30 10:02:26;;;;;;;15.95;11.82;;;;;;;;;;5094024;28;20048;-76
2023/08/30 10:04:52;;;;;;;16.13;11.15;;;;;;;;;;5106270;28;20131;-76
2023/08/30 10:07:19;;;;;;;17.05;12.88;;;;;;;;;;5117993;28;20047;-75
2023/08/30 10:09:46;;;;;;;18.88;12.63;;;;;;;;;;5116666;28;20043;-75
2023/08/30 10:12:12;;;;;;;14.70;12.68;;;;;;;;;;5100388;28;20543;-75
2023/08/30 10:14:38;;;;;;;17.83;12.23;;;;;;;;;;5103328;28;20121;-75
2023/08/30 10:17:08;;;;;;;16.25;13.40;;;;;;;;;;5114258;28;20044;-76
2023/08/30 10:19:35;;;;;;;19.10;13.20;;;;;;;;;;5118190;28;20489;-75
2023/08/30 10:22:04;;;;;;;18.45;13.65;;;;;;;;;;5116758;28;20048;-75
2023/08/30 10:24:43;;;;;;;16.38;14.45;;;;;;;;;;5117782;28;20490;-75
2023/08/30 10:27:10;;;;;;;16.30;13.70;;;;;;;;;;5113680;28;20048;-75
2023/08/30 10:29:36;;;;;;;15.93;12.57;;;;;;;;;;5115285;28;20086;-75
2023/08/30 10:32:06;;;;;;;16.35;13.85;;;;;;;;;;5125030;27;20403;-75
2023/08/30 10:34:34;;;;;;;17.10;13.73;;;;;;;;;;5135012;27;20061;-75
2023/08/30 10:37:01;;;;;;;14.75;12.68;;;;;;;;;;5123344;27;20054;-74
2023/08/30 10:39:37;;;;;;;15.82;12.38;;;;;;;;;;5110877;27;20424;-75
2023/08/30 10:42:13;;;;;;;15.23;12.88;;;;;;;;;;5108773;27;20071;-75
2023/08/30 10:44:59;;;;;;;14.82;11.95;;;;;;;;;;5109802;27;20044;-75
2023/08/30 10:47:29;;;;;;;14.32;12.52;;;;;;;;;;5109009;28;20047;-75
2023/08/30 10:49:58;;;;;;;12.32;10.55;;;;;;;;;;5128023;27;20039;-75
2023/08/30 10:52:25;;;;;;;11.32;9.35;;;;;;;;;;5114777;27;20040;-75
2023/08/30 10:54:51;;;;;;;11.88;9.93;;;;;;;;;;5124070;27;20054;-75
2023/08/30 10:57:25;;;;;;;10.60;9.05;;;;;;;;;;5130129;27;20093;-75
2023/08/30 11:00:16;;;;;;;12.73;10.05;;;;;;;;;;5133092;27;20047;-75
2023/08/30 11:03:00;;;;;;;11.70;7.82;;;;;;;;;;5101698;27;20047;-75
2023/08/30 11:05:27;;;;;;;9.57;7.40;;;;;;;;;;5121501;27;20435;-75
2023/08/30 11:07:54;;;;;;;9.77;6.65;;;;;;;;;;5120269;27;20052;-75
2023/08/30 11:10:21;;;;;;;10.18;7.03;;;;;;;;;;5113496;27;20036;-75
2023/08/30 11:12:49;;;;;;;10.23;7.13;;;;;;;;;;5123751;27;20043;-76
2023/08/30 11:15:15;;;;;;;11.82;7.95;;;;;;;;;;5114572;27;20047;-75
2023/08/30 11:17:42;;;;;;;10.63;7.50;;;;;;;;;;5130980;27;20054;-75
2023/08/30 11:20:09;;;;;;;10.35;7.85;;;;;;;;;;5114979;27;20039;-76
2023/08/30 11:22:38;;;;;;;9.90;7.68;;;;;;;;;;5112507;28;20055;-76
2023/08/30 11:25:05;;;;;;;10.60;7.97;;;;;;;;;;5123703;27;20122;-76
2023/08/30 11:27:31;;;;;;;10.02;7.85;;;;;;;;;;5113404;27;20070;-76
2023/08/30 11:30:05;;;;;;;10.88;8.23;;;;;;;;;;5121196;27;20414;-75
2023/08/30 11:32:38;;;;;;;10.82;8.63;;;;;;;;;;5104463;27;20073;-75
2023/08/30 11:35:05;;;;;;;10.35;8.80;;;;;;;;;;5099623;27;20067;-75
2023/08/30 11:37:31;;;;;;;11.68;9.63;;;;;;;;;;5122836;27;20047;-75
2023/08/30 11:39:57;;;;;;;12.02;9.85;;;;;;;;;;5103032;28;20039;-75
2023/08/30 11:42:24;;;;;;;13.15;10.25;;;;;;;;;;5107939;28;20512;-75
2023/08/30 11:44:51;;;;;;;13.18;10.15;;;;;;;;;;5096707;28;20046;-75
2023/08/30 11:47:20;;;;;;;13.95;11.00;;;;;;;;;;5114255;28;20048;-75
2023/08/30 11:49:49;;;;;;;13.15;10.35;;;;;;;;;;5112837;28;20074;-75
2023/08/30 11:52:15;;;;;;;13.38;10.40;;;;;;;;;;5075419;28;20101;-75
2023/08/30 11:54:41;;;;;;;12.15;10.13;;;;;;;;;;5094192;28;20047;-75
2023/08/30 11:57:08;;;;;;;12.48;10.70;;;;;;;;;;5095251;27;20050;-74
2023/08/30 11:59:38;;;;;;;12.25;10.90;;;;;;;;;;5107384;28;20048;-75
2023/08/30 12:02:04;;;;;;;11.98;10.77;;;;;;;;;;5113061;28;20048;-75
2023/08/30 12:04:31;;;;;;;13.52;11.05;;;;;;;;;;5112780;28;20509;-75
2023/08/30 12:06:59;;;;;;;13.30;11.73;;;;;;;;;;5111962;28;20047;-75
2023/08/30 12:09:30;;;;;;;12.30;10.43;;;;;;;;;;5112192;28;20457;-74
2023/08/30 12:12:05;;;;;;;13.57;11.60;;;;;;;;;;5111121;28;20040;-75
2023/08/30 12:14:35;;;;;;;15.00;12.32;;;;;;;;;;5106812;28;20035;-75
2023/08/30 12:17:01;;;;;;;13.77;12.30;;;;;;;;;;5109706;27;20043;-75
2023/08/30 12:19:28;;;;;;;15.35;12.95;;;;;;;;;;5112023;28;20042;-77
2023/08/30 12:21:55;;;;;;;14.73;13.13;;;;;;;;;;5112140;28;20405;-78
2023/08/30 12:24:22;;;;;;;14.18;12.60;;;;;;;;;;5108917;28;20065;-78
2023/08/30 12:26:49;;;;;;;16.15;13.27;;;;;;;;;;5103836;28;20051;-77
2023/08/30 12:29:15;;;;;;;15.23;13.55;;;;;;;;;;5108990;28;20127;-77
2023/08/30 12:31:41;;;;;;;14.93;13.38;;;;;;;;;;5110823;28;20405;-78
2023/08/30 12:34:07;;;;;;;16.10;13.38;;;;;;;;;;5104092;28;20047;-78
2023/08/30 12:36:34;;;;;;;14.02;12.52;;;;;;;;;;5110121;28;20047;-78
2023/08/30 12:39:00;;;;;;;14.77;12.45;;;;;;;;;;5104593;28;20472;-78
2023/08/30 12:41:26;;;;;;;13.57;12.15;;;;;;;;;;5109073;28;20069;-78
2023/08/30 12:43:52;;;;;;;14.13;12.50;;;;;;;;;;5112446;28;20040;-78
2023/08/30 12:46:18;;;;;;;13.63;11.75;;;;;;;;;;5109358;28;20122;-78
2023/08/30 12:48:44;;;;;;;12.93;11.55;;;;;;;;;;5106105;28;20044;-78
2023/08/30 12:51:10;;;;;;;13.25;11.95;;;;;;;;;;5110929;28;20505;-78
2023/08/30 12:53:36;;;;;;;13.35;11.65;;;;;;;;;;5093395;28;20112;-78
2023/08/30 12:56:04;;;;;;;12.10;10.77;;;;;;;;;;5111593;28;20405;-78
2023/08/30 12:58:30;;;;;;;14.40;12.90;;;;;;;;;;5112766;28;20047;-78
2023/08/30 13:00:56;;;;;;;14.18;12.77;;;;;;;;;;5108735;28;20501;-78
2023/08/30 13:03:23;;;;;;;14.82;13.32;;;;;;;;;;5110766;28;20046;-79
2023/08/30 13:05:49;;;;;;;14.23;12.73;;;;;;;;;;5110138;28;20049;-78
2023/08/30 13:08:15;;;;;;;13.00;11.70;;;;;;;;;;5090040;28;20056;-78
2023/08/30 13:10:41;;;;;;;14.07;12.52;;;;;;;;;;5109964;28;20043;-78
2023/08/30 13:13:07;;;;;;;15.40;13.15;;;;;;;;;;5111920;28;20093;-77
2023/08/30 13:15:35;;;;;;;12.65;11.35;;;;;;;;;;5111469;28;20485;-78
2023/08/30 13:18:01;;;;;;;13.13;11.82;;;;;;;;;;5111826;28;20430;-78
2023/08/30 13:20:27;;;;;;;12.50;11.20;;;;;;;;;;5110456;28;20076;-77
2023/08/30 13:22:53;;;;;;;12.63;10.77;;;;;;;;;;5110458;28;20092;-77
2023/08/30 13:25:19;;;;;;;12.13;10.82;;;;;;;;;;5111235;28;20047;-76
2023/08/30 13:27:45;;;;;;;11.55;10.35;;;;;;;;;;5110944;28;20078;-77
2023/08/30 13:30:11;;;;;;;11.75;10.50;;;;;;;;;;5111509;28;20486;-77
2023/08/30 13:32:38;;;;;;;10.82;9.68;;;;;;;;;;5111537;28;20458;-77
2023/08/30 13:35:04;;;;;;;8.88;7.82;;;;;;;;;;5109605;28;20051;-77
2023/08/30 13:37:30;;;;;;;9.27;8.07;;;;;;;;;;5112601;28;20543;-77
2023/08/30 13:39:56;;;;;;;9.80;7.90;;;;;;;;;;5109331;28;20081;-77
2023/08/30 13:42:22;;;;;;;9.27;8.30;;;;;;;;;;5114604;28;20047;-77
2023/08/30 13:44:50;;;;;;;8.85;7.78;;;;;;;;;;5112895;28;20048;-77
2023/08/30 13:47:17;;;;;;;10.32;7.43;;;;;;;;;;5112340;28;20042;-76
2023/08/30 13:49:43;;;;;;;7.97;6.68;;;;;;;;;;5110509;28;20035;-76
2023/08/30 13:52:09;;;;;;;8.57;6.57;;;;;;;;;;5111547;28;20044;-76
2023/08/30 13:54:35;;;;;;;7.53;5.72;;;;;;;;;;5111089;28;20488;-76
2023/08/30 13:57:01;;;;;;;6.78;4.88;;;;;;;;;;5107721;28;20543;-76
2023/08/30 13:59:28;;;;;;;6.53;5.03;;;;;;;;;;5110205;28;20497;-76
2023/08/30 14:01:54;;;;;;;5.90;4.75;;;;;;;;;;5111491;28;20044;-76
2023/08/30 14:04:20;;;;;;;6.25;4.63;;;;;;;;;;5108423;28;20404;-76
2023/08/30 14:06:46;;;;;;;7.55;4.95;;;;;;;;;;5112176;28;20051;-76
2023/08/30 14:09:13;;;;;;;7.00;5.03;;;;;;;;;;5113840;28;20086;-76
2023/08/30 14:11:41;;;;;;;6.20;4.68;;;;;;;;;;5114033;28;20485;-76
2023/08/30 14:14:07;;;;;;;6.40;5.03;;;;;;;;;;5113456;28;20058;-76
2023/08/30 14:16:33;;;;;;;6.22;4.70;;;;;;;;;;5113953;28;20061;-76
2023/08/30 14:18:59;;;;;;;6.25;4.90;;;;;;;;;;5114814;28;20097;-76